createdAt,value
2018-06-04T00:00:27.097Z,0.00
2018-06-04T00:01:27.091Z,0.00
2018-06-04T00:02:27.086Z,0.00
2018-06-04T00:03:27.080Z,0.00
2018-06-04T00:04:27.079Z,0.00
2018-06-04T00:05:27.072Z,0.00
2018-06-04T00:06:27.064Z,0.00
2018-06-04T00:07:27.063Z,0.00
2018-06-04T00:08:27.057Z,0.00
2018-06-04T00:09:27.049Z,0.00
2018-06-04T00:10:27.042Z,0.00
2018-06-04T00:11:27.037Z,0.00
2018-06-04T00:12:27.032Z,0.00
2018-06-04T00:13:27.026Z,0.00
2018-06-04T00:14:27.026Z,0.00
2018-06-04T00:15:27.015Z,0.00
2018-06-04T00:16:27.012Z,0.00
2018-06-04T00:17:27.006Z,0.00
2018-06-04T00:18:27.001Z,0.00
2018-06-04T00:19:26.993Z,0.00
2018-06-04T00:20:26.988Z,0.00
2018-06-04T00:21:26.983Z,0.00
2018-06-04T00:22:26.977Z,0.00
2018-06-04T00:23:26.972Z,0.00
2018-06-04T00:24:26.966Z,0.00
2018-06-04T00:25:26.966Z,0.00
2018-06-04T00:26:26.957Z,0.00
2018-06-04T00:27:26.950Z,0.00
2018-06-04T00:28:26.945Z,0.00
2018-06-04T00:29:26.944Z,0.00
2018-06-04T00:30:26.932Z,0.00
2018-06-04T00:31:26.927Z,0.00
2018-06-04T00:32:26.923Z,0.00
2018-06-04T00:33:26.917Z,0.00
2018-06-04T00:34:26.912Z,0.00
2018-06-04T00:35:26.905Z,0.00
2018-06-04T00:36:26.904Z,0.00
2018-06-04T00:37:26.896Z,0.00
2018-06-04T00:38:26.888Z,0.00
2018-06-04T00:39:26.883Z,0.00
2018-06-04T00:40:26.881Z,0.00
2018-06-04T00:41:26.876Z,0.00
2018-06-04T00:42:26.866Z,0.00
2018-06-04T00:43:26.861Z,0.00
2018-06-04T00:44:26.856Z,0.00
2018-06-04T00:45:26.851Z,0.00
2018-06-04T00:46:26.843Z,0.00
2018-06-04T00:47:26.838Z,0.00
2018-06-04T00:48:26.834Z,0.00
2018-06-04T00:49:26.827Z,0.00
2018-06-04T00:50:26.820Z,0.00
2018-06-04T00:51:26.815Z,0.00
2018-06-04T00:52:26.810Z,0.00
2018-06-04T00:53:26.803Z,0.00
2018-06-04T00:54:26.798Z,0.00
2018-06-04T00:55:26.793Z,0.00
2018-06-04T00:56:26.785Z,0.00
2018-06-04T00:57:26.983Z,0.00
2018-06-04T00:58:26.773Z,0.00
2018-06-04T00:59:26.767Z,0.00
2018-06-04T01:00:26.762Z,0.00
2018-06-04T01:01:26.756Z,0.00
2018-06-04T01:02:26.750Z,0.00
2018-06-04T01:03:26.744Z,0.00
2018-06-04T01:04:26.740Z,0.00
2018-06-04T01:05:26.733Z,0.00
2018-06-04T01:06:26.726Z,0.00
2018-06-04T01:07:26.722Z,0.00
2018-06-04T01:08:26.715Z,0.00
2018-06-04T01:09:26.709Z,0.00
2018-06-04T01:10:26.703Z,0.00
2018-06-04T01:11:26.699Z,0.00
2018-06-04T01:12:26.692Z,0.00
2018-06-04T01:13:26.686Z,0.00
2018-06-04T01:14:26.680Z,0.00
2018-06-04T01:15:26.676Z,0.00
2018-06-04T01:16:26.668Z,0.00
2018-06-04T01:17:26.663Z,0.00
2018-06-04T01:18:26.661Z,0.00
2018-06-04T01:19:26.650Z,0.00
2018-06-04T01:20:26.645Z,0.00
2018-06-04T01:21:26.640Z,0.00
2018-06-04T01:22:26.633Z,0.00
2018-06-04T01:23:26.627Z,0.00
2018-06-04T01:24:26.623Z,0.00
2018-06-04T01:25:26.617Z,0.00
2018-06-04T01:26:26.613Z,0.00
2018-06-04T01:27:26.605Z,0.00
2018-06-04T01:28:26.599Z,0.00
2018-06-04T01:29:26.594Z,0.00
2018-06-04T01:30:26.588Z,0.00
2018-06-04T01:31:26.581Z,0.00
2018-06-04T01:32:26.579Z,0.00
2018-06-04T01:33:26.571Z,0.00
2018-06-04T01:34:26.564Z,0.00
2018-06-04T01:35:26.558Z,0.00
2018-06-04T01:36:26.552Z,0.00
2018-06-04T01:37:26.547Z,0.00
2018-06-04T01:38:26.546Z,0.00
2018-06-04T01:39:26.535Z,0.00
2018-06-04T01:40:26.528Z,0.00
2018-06-04T01:41:26.525Z,0.00
2018-06-04T01:42:26.517Z,0.00
2018-06-04T01:43:26.512Z,0.00
2018-06-04T01:44:26.505Z,0.00
2018-06-04T01:45:26.500Z,0.00
2018-06-04T01:46:26.493Z,0.00
2018-06-04T01:47:26.487Z,0.00
2018-06-04T01:48:26.483Z,0.00
2018-06-04T01:49:26.477Z,0.00
2018-06-04T01:50:26.475Z,0.00
2018-06-04T01:51:26.464Z,0.00
2018-06-04T01:52:26.459Z,0.00
2018-06-04T01:53:26.458Z,0.00
2018-06-04T01:54:26.449Z,0.00
2018-06-04T01:55:26.443Z,0.00
2018-06-04T01:56:26.434Z,0.00
2018-06-04T01:57:26.430Z,0.00
2018-06-04T01:58:26.424Z,0.00
2018-06-04T01:59:26.417Z,0.00
2018-06-04T02:00:26.413Z,0.00
2018-06-04T02:01:26.610Z,0.00
2018-06-04T02:02:26.399Z,0.00
2018-06-04T02:03:26.395Z,0.00
2018-06-04T02:04:26.388Z,0.00
2018-06-04T02:05:26.382Z,0.00
2018-06-04T02:06:26.376Z,0.00
2018-06-04T02:07:26.376Z,0.00
2018-06-04T02:08:26.364Z,0.00
2018-06-04T02:09:26.360Z,0.00
2018-06-04T02:10:26.352Z,0.00
2018-06-04T02:11:26.354Z,0.00
2018-06-04T02:12:26.339Z,0.00
2018-06-04T02:13:26.372Z,0.00
2018-06-04T02:15:26.324Z,0.00
2018-06-04T02:16:26.315Z,0.00
2018-06-04T02:17:26.309Z,0.00
2018-06-04T02:18:26.302Z,0.00
2018-06-04T02:19:26.297Z,0.00
2018-06-04T02:20:26.290Z,0.00
2018-06-04T02:21:26.285Z,0.00
2018-06-04T02:22:26.278Z,0.00
2018-06-04T02:23:26.272Z,0.00
2018-06-04T02:24:26.266Z,0.00
2018-06-04T02:25:26.260Z,0.00
2018-06-04T02:26:26.254Z,0.00
2018-06-04T02:27:26.249Z,0.00
2018-06-04T02:28:26.242Z,0.00
2018-06-04T02:29:26.236Z,0.00
2018-06-04T02:30:26.231Z,0.00
2018-06-04T02:31:26.223Z,0.00
2018-06-04T02:32:26.217Z,0.00
2018-06-04T02:33:26.212Z,0.00
2018-06-04T02:34:26.204Z,0.00
2018-06-04T02:35:26.201Z,0.00
2018-06-04T02:36:26.192Z,0.00
2018-06-04T02:37:26.186Z,0.00
2018-06-04T02:38:26.179Z,0.00
2018-06-04T02:39:26.173Z,0.00
2018-06-04T02:40:26.166Z,0.00
2018-06-04T02:41:26.161Z,0.00
2018-06-04T02:42:26.154Z,0.00
2018-06-04T02:43:26.147Z,0.00
2018-06-04T02:44:26.143Z,0.00
2018-06-04T02:45:26.173Z,0.00
2018-06-04T02:46:26.127Z,0.00
2018-06-04T02:47:26.121Z,0.00
2018-06-04T02:48:26.121Z,0.00
2018-06-04T02:49:26.110Z,0.00
2018-06-04T02:50:26.103Z,0.00
2018-06-04T02:51:26.097Z,0.00
2018-06-04T02:52:26.091Z,0.00
2018-06-04T02:53:26.084Z,0.00
2018-06-04T02:54:26.077Z,0.00
2018-06-04T02:55:26.274Z,0.00
2018-06-04T02:56:26.065Z,0.00
2018-06-04T02:57:26.063Z,0.00
2018-06-04T02:58:26.051Z,0.00
2018-06-04T02:59:26.051Z,0.00
2018-06-04T03:00:26.049Z,0.00
2018-06-04T03:01:26.034Z,0.00
2018-06-04T03:02:26.027Z,0.00
2018-06-04T03:03:26.020Z,0.00
2018-06-04T03:04:26.014Z,0.00
2018-06-04T03:05:26.008Z,0.00
2018-06-04T03:06:26.203Z,0.00
2018-06-04T03:07:25.998Z,0.00
2018-06-04T03:08:25.988Z,0.00
2018-06-04T03:09:25.983Z,0.00
2018-06-04T03:10:25.975Z,0.00
2018-06-04T03:11:25.969Z,0.00
2018-06-04T03:12:25.970Z,0.00
2018-06-04T03:13:25.959Z,0.00
2018-06-04T03:14:25.977Z,0.00
2018-06-04T03:15:25.944Z,0.00
2018-06-04T03:16:25.941Z,5.63
2018-06-04T03:17:25.931Z,5.63
2018-06-04T03:18:25.923Z,5.63
2018-06-04T03:19:25.917Z,5.63
2018-06-04T03:20:25.911Z,5.63
2018-06-04T03:21:25.904Z,5.63
2018-06-04T03:22:25.904Z,5.63
2018-06-04T03:23:25.890Z,5.63
2018-06-04T03:24:25.888Z,5.63
2018-06-04T03:25:25.879Z,5.63
2018-06-04T03:26:25.871Z,11.25
2018-06-04T03:27:25.865Z,11.25
2018-06-04T03:28:25.859Z,11.25
2018-06-04T03:29:25.852Z,11.25
2018-06-04T03:30:25.847Z,11.25
2018-06-04T03:31:25.840Z,16.88
2018-06-04T03:32:25.835Z,16.88
2018-06-04T03:33:25.833Z,16.88
2018-06-04T03:35:25.814Z,16.88
2018-06-04T03:36:25.808Z,22.50
2018-06-04T03:37:25.806Z,22.50
2018-06-04T03:38:25.798Z,22.50
2018-06-04T03:39:25.791Z,22.50
2018-06-04T03:40:25.781Z,28.13
2018-06-04T03:41:25.778Z,28.13
2018-06-04T03:42:25.767Z,28.13
2018-06-04T03:43:25.761Z,28.13
2018-06-04T03:44:25.755Z,33.75
2018-06-04T03:45:25.749Z,33.75
2018-06-04T03:46:25.743Z,33.75
2018-06-04T03:47:25.735Z,33.75
2018-06-04T03:48:25.931Z,39.38
2018-06-04T03:49:25.727Z,39.38
2018-06-04T03:50:25.715Z,39.38
2018-06-04T03:51:25.709Z,39.38
2018-06-04T03:52:25.703Z,45.00
2018-06-04T03:53:25.696Z,45.00
2018-06-04T03:54:25.689Z,45.00
2018-06-04T03:55:25.683Z,50.63
2018-06-04T03:56:25.676Z,50.63
2018-06-04T03:57:25.670Z,50.63
2018-06-04T03:58:25.663Z,56.25
2018-06-04T03:59:25.657Z,56.25
2018-06-04T04:00:25.655Z,56.25
2018-06-04T04:01:25.645Z,61.88
2018-06-04T04:02:25.641Z,61.88
2018-06-04T04:03:25.678Z,61.88
2018-06-04T04:04:25.633Z,67.50
2018-06-04T04:05:25.620Z,67.50
2018-06-04T04:06:25.612Z,67.50
2018-06-04T04:07:25.606Z,73.13
2018-06-04T04:08:25.607Z,73.13
2018-06-04T04:09:25.625Z,73.13
2018-06-04T04:10:25.591Z,73.13
2018-06-04T04:11:25.587Z,73.13
2018-06-04T04:12:25.574Z,73.13
2018-06-04T04:13:25.568Z,73.13
2018-06-04T04:14:25.561Z,73.13
2018-06-04T04:15:25.556Z,78.75
2018-06-04T04:16:25.549Z,78.75
2018-06-04T04:17:25.544Z,78.75
2018-06-04T04:18:25.536Z,84.38
2018-06-04T04:19:25.534Z,84.38
2018-06-04T04:20:25.524Z,90.00
2018-06-04T04:21:25.522Z,95.63
2018-06-04T04:22:25.514Z,101.25
2018-06-04T04:23:25.506Z,101.25
2018-06-04T04:24:25.500Z,101.25
2018-06-04T04:25:25.495Z,106.88
2018-06-04T04:26:25.488Z,106.88
2018-06-04T04:27:25.482Z,112.50
2018-06-04T04:28:25.477Z,112.50
2018-06-04T04:29:25.512Z,112.50
2018-06-04T04:30:25.464Z,112.50
2018-06-04T04:31:25.458Z,118.13
2018-06-04T04:32:25.455Z,123.75
2018-06-04T04:33:25.449Z,123.75
2018-06-04T04:34:25.510Z,123.75
2018-06-04T04:35:25.438Z,123.75
2018-06-04T04:36:25.429Z,123.75
2018-06-04T04:37:25.423Z,123.75
2018-06-04T04:38:25.417Z,123.75
2018-06-04T04:39:25.412Z,123.75
2018-06-04T04:40:25.411Z,123.75
2018-06-04T04:41:25.400Z,123.75
2018-06-04T04:42:25.403Z,123.75
2018-06-04T04:43:25.390Z,123.75
2018-06-04T04:44:25.388Z,123.75
2018-06-04T04:45:25.380Z,123.75
2018-06-04T04:46:25.371Z,123.75
2018-06-04T04:47:25.365Z,129.38
2018-06-04T04:48:25.359Z,135.00
2018-06-04T04:49:25.360Z,135.00
2018-06-04T04:50:25.348Z,146.25
2018-06-04T04:51:25.342Z,146.25
2018-06-04T04:52:25.337Z,151.88
2018-06-04T04:53:25.331Z,151.88
2018-06-04T04:54:25.329Z,157.50
2018-06-04T04:55:25.320Z,157.50
2018-06-04T04:56:25.368Z,157.50
2018-06-04T04:57:25.308Z,157.50
2018-06-04T04:58:25.305Z,157.50
2018-06-04T04:59:25.342Z,163.13
2018-06-04T05:00:25.291Z,163.13
2018-06-04T05:01:25.294Z,163.13
2018-06-04T05:02:25.279Z,168.75
2018-06-04T05:03:25.274Z,168.75
2018-06-04T05:04:25.274Z,180.00
2018-06-04T05:05:25.268Z,174.38
2018-06-04T05:06:25.257Z,174.38
2018-06-04T05:07:25.252Z,174.38
2018-06-04T05:08:25.253Z,180.00
2018-06-04T05:09:25.242Z,185.63
2018-06-04T05:10:25.236Z,185.63
2018-06-04T05:11:25.233Z,185.63
2018-06-04T05:12:25.237Z,191.25
2018-06-04T05:14:25.214Z,202.50
2018-06-04T05:15:25.209Z,208.13
2018-06-04T05:16:25.204Z,208.13
2018-06-04T05:17:25.199Z,213.75
2018-06-04T05:18:25.198Z,219.38
2018-06-04T05:19:25.193Z,225.00
2018-06-04T05:20:25.195Z,236.25
2018-06-04T05:21:25.181Z,241.88
2018-06-04T05:22:25.174Z,241.88
2018-06-04T05:23:25.167Z,247.50
2018-06-04T05:24:25.162Z,253.13
2018-06-04T05:25:25.159Z,258.75
2018-06-04T05:26:25.153Z,264.38
2018-06-04T05:27:25.350Z,270.00
2018-06-04T05:28:25.143Z,275.63
2018-06-04T05:29:25.341Z,275.63
2018-06-04T05:30:25.136Z,281.25
2018-06-04T05:31:25.129Z,286.88
2018-06-04T05:32:25.123Z,286.88
2018-06-04T05:33:25.119Z,286.88
2018-06-04T05:34:25.316Z,292.50
2018-06-04T05:35:25.109Z,298.13
2018-06-04T05:36:25.106Z,298.13
2018-06-04T05:37:25.104Z,303.75
2018-06-04T05:38:25.100Z,309.38
2018-06-04T05:39:25.099Z,309.38
2018-06-04T05:40:25.088Z,309.38
2018-06-04T05:41:25.084Z,315.00
2018-06-04T05:42:25.131Z,320.63
2018-06-04T05:43:25.074Z,320.63
2018-06-04T05:44:25.072Z,326.25
2018-06-04T05:45:25.067Z,320.63
2018-06-04T05:46:25.061Z,315.00
2018-06-04T05:47:25.061Z,292.50
2018-06-04T05:48:25.054Z,286.88
2018-06-04T05:49:25.051Z,286.88
2018-06-04T05:50:25.046Z,298.13
2018-06-04T05:51:25.047Z,315.00
2018-06-04T05:52:25.040Z,337.50
2018-06-04T05:53:25.035Z,348.75
2018-06-04T05:54:25.035Z,360.00
2018-06-04T05:55:25.029Z,365.63
2018-06-04T05:56:25.025Z,365.63
2018-06-04T05:57:25.020Z,365.63
2018-06-04T05:58:25.015Z,371.25
2018-06-04T05:59:25.016Z,365.63
2018-06-04T06:00:25.011Z,360.00
2018-06-04T06:01:25.006Z,360.00
2018-06-04T06:02:25.001Z,354.38
2018-06-04T06:03:25.201Z,365.63
2018-06-04T06:04:24.995Z,376.88
2018-06-04T06:05:24.992Z,382.50
2018-06-04T06:06:24.988Z,388.13
2018-06-04T06:07:24.985Z,388.13
2018-06-04T06:08:24.984Z,393.75
2018-06-04T06:09:24.981Z,393.75
2018-06-04T06:10:24.974Z,393.75
2018-06-04T06:11:24.971Z,393.75
2018-06-04T06:12:24.971Z,393.75
2018-06-04T06:13:24.966Z,393.75
2018-06-04T06:14:24.976Z,399.38
2018-06-04T06:15:24.964Z,393.75
2018-06-04T06:16:24.956Z,393.75
2018-06-04T06:17:24.953Z,399.38
2018-06-04T06:18:24.955Z,405.00
2018-06-04T06:19:24.947Z,416.25
2018-06-04T06:20:24.944Z,421.88
2018-06-04T06:21:24.948Z,427.50
2018-06-04T06:22:24.940Z,433.13
2018-06-04T06:23:24.935Z,438.75
2018-06-04T06:24:24.933Z,438.75
2018-06-04T06:25:24.937Z,438.75
2018-06-04T06:26:24.933Z,438.75
2018-06-04T06:27:24.929Z,438.75
2018-06-04T06:28:24.923Z,450.00
2018-06-04T06:29:24.920Z,455.63
2018-06-04T06:30:24.923Z,461.25
2018-06-04T06:31:24.921Z,466.88
2018-06-04T06:32:24.917Z,472.50
2018-06-04T06:33:24.912Z,478.13
2018-06-04T06:34:24.918Z,478.13
2018-06-04T06:35:24.907Z,483.75
2018-06-04T06:37:24.903Z,483.75
2018-06-04T06:38:24.900Z,489.38
2018-06-04T06:39:24.898Z,489.38
2018-06-04T06:40:24.896Z,500.63
2018-06-04T06:41:24.900Z,500.63
2018-06-04T06:42:24.892Z,500.63
2018-06-04T06:43:24.892Z,506.25
2018-06-04T06:44:24.889Z,511.88
2018-06-04T06:45:24.887Z,517.50
2018-06-04T06:46:24.885Z,523.13
2018-06-04T06:47:24.884Z,528.75
2018-06-04T06:48:24.882Z,540.00
2018-06-04T06:49:24.880Z,545.63
2018-06-04T06:50:24.879Z,562.50
2018-06-04T06:51:24.880Z,579.38
2018-06-04T06:52:24.880Z,618.75
2018-06-04T06:53:24.876Z,579.38
2018-06-04T06:54:24.872Z,579.38
2018-06-04T06:55:24.906Z,579.38
2018-06-04T06:56:24.871Z,590.63
2018-06-04T06:57:24.870Z,601.88
2018-06-04T06:58:24.870Z,618.75
2018-06-04T06:59:24.870Z,618.75
2018-06-04T07:00:24.866Z,624.38
2018-06-04T07:01:24.866Z,641.25
2018-06-04T07:02:24.865Z,652.50
2018-06-04T07:03:24.866Z,776.25
2018-06-04T07:04:24.863Z,1141.88
2018-06-04T07:05:24.862Z,1372.50
2018-06-04T07:06:24.861Z,1271.25
2018-06-04T07:07:24.869Z,1001.25
2018-06-04T07:08:24.865Z,736.88
2018-06-04T07:09:24.867Z,866.25
2018-06-04T07:10:24.864Z,1018.13
2018-06-04T07:11:24.862Z,1141.88
2018-06-04T07:12:24.863Z,1715.63
2018-06-04T07:13:24.863Z,1951.88
2018-06-04T07:14:24.869Z,2019.38
2018-06-04T07:15:24.865Z,2109.38
2018-06-04T07:16:24.867Z,1378.13
2018-06-04T07:17:24.870Z,770.63
2018-06-04T07:18:24.874Z,720.00
2018-06-04T07:19:24.873Z,703.13
2018-06-04T07:20:24.876Z,691.88
2018-06-04T07:21:24.914Z,697.50
2018-06-04T07:22:24.881Z,714.38
2018-06-04T07:23:24.888Z,956.25
2018-06-04T07:24:24.889Z,1732.50
2018-06-04T07:25:25.299Z,2362.50
2018-06-04T07:26:24.900Z,2317.50
2018-06-04T07:28:24.912Z,2272.50
2018-06-04T07:29:24.920Z,2362.50
2018-06-04T07:30:24.919Z,2469.38
2018-06-04T07:31:24.929Z,2570.63
2018-06-04T07:32:24.936Z,2576.25
2018-06-04T07:33:24.939Z,2491.88
2018-06-04T07:34:24.949Z,2469.38
2018-06-04T07:35:24.952Z,2525.63
2018-06-04T07:36:24.967Z,2621.25
2018-06-04T07:37:24.972Z,2677.50
2018-06-04T07:38:24.975Z,2666.25
2018-06-04T07:39:24.985Z,2598.75
2018-06-04T07:40:24.993Z,2632.50
2018-06-04T07:41:25.001Z,2649.38
2018-06-04T07:42:25.012Z,2559.38
2018-06-04T07:43:25.019Z,2655.00
2018-06-04T07:44:25.059Z,2626.88
2018-06-04T07:45:25.040Z,2604.38
2018-06-04T07:46:25.047Z,2806.88
2018-06-04T07:47:25.057Z,2756.25
2018-06-04T07:48:25.067Z,2553.75
2018-06-04T07:49:25.081Z,2525.63
2018-06-04T07:50:25.086Z,2542.50
2018-06-04T07:51:25.097Z,2739.38
2018-06-04T07:52:25.117Z,2891.25
2018-06-04T07:53:25.118Z,2902.50
2018-06-04T07:54:25.171Z,2913.75
2018-06-04T07:55:25.138Z,2947.50
2018-06-04T07:56:25.157Z,3020.63
2018-06-04T07:57:25.203Z,2970.00
2018-06-04T07:58:25.170Z,2919.38
2018-06-04T07:59:25.181Z,2891.25
2018-06-04T08:00:25.199Z,2981.25
2018-06-04T08:01:25.412Z,2986.88
2018-06-04T08:02:25.219Z,2981.25
2018-06-04T08:03:25.227Z,2964.38
2018-06-04T08:04:25.296Z,2885.63
2018-06-04T08:05:25.255Z,2947.50
2018-06-04T08:06:25.284Z,3026.25
2018-06-04T08:07:25.282Z,3116.25
2018-06-04T08:08:25.290Z,3071.25
2018-06-04T08:09:25.298Z,2902.50
2018-06-04T08:10:25.310Z,2947.50
2018-06-04T08:11:25.322Z,3082.50
2018-06-04T08:12:25.340Z,3082.50
2018-06-04T08:13:25.351Z,3178.13
2018-06-04T08:14:25.362Z,3183.75
2018-06-04T08:15:25.372Z,3195.00
2018-06-04T08:16:25.387Z,3088.13
2018-06-04T08:17:25.397Z,3155.63
2018-06-04T08:18:25.409Z,3138.75
2018-06-04T08:19:25.423Z,3313.13
2018-06-04T08:20:25.438Z,3048.75
2018-06-04T08:21:25.450Z,2958.75
2018-06-04T08:22:25.461Z,3071.25
2018-06-04T08:23:25.478Z,3082.50
2018-06-04T08:24:25.526Z,3065.63
2018-06-04T08:25:25.506Z,3110.63
2018-06-04T08:26:25.513Z,3183.75
2018-06-04T08:27:25.528Z,3015.00
2018-06-04T08:28:25.549Z,3161.25
2018-06-04T08:29:25.554Z,3172.50
2018-06-04T08:30:25.573Z,3076.88
2018-06-04T08:31:25.580Z,3144.38
2018-06-04T08:32:25.594Z,3223.13
2018-06-04T08:33:25.608Z,3166.88
2018-06-04T08:34:25.621Z,3071.25
2018-06-04T08:35:25.637Z,3178.13
2018-06-04T08:36:25.654Z,3166.88
2018-06-04T08:37:25.662Z,3071.25
2018-06-04T08:38:25.733Z,3161.25
2018-06-04T08:39:25.694Z,3150.00
2018-06-04T08:40:25.704Z,3065.63
2018-06-04T08:41:25.720Z,3200.63
2018-06-04T08:42:25.732Z,3144.38
2018-06-04T08:43:25.746Z,3127.50
2018-06-04T08:44:25.767Z,3301.88
2018-06-04T08:45:25.776Z,3121.88
2018-06-04T08:46:25.792Z,3307.50
2018-06-04T08:47:25.804Z,3166.88
2018-06-04T08:48:25.818Z,3121.88
2018-06-04T08:49:25.833Z,3335.63
2018-06-04T08:50:25.846Z,3301.88
2018-06-04T08:51:25.861Z,2953.13
2018-06-04T08:52:25.880Z,3324.38
2018-06-04T08:53:25.894Z,3099.38
2018-06-04T08:54:25.905Z,3206.25
2018-06-04T08:55:25.920Z,3206.25
2018-06-04T08:56:26.231Z,3296.25
2018-06-04T08:57:25.949Z,3408.75
2018-06-04T08:58:25.963Z,3043.13
2018-06-04T08:59:25.978Z,1355.63
2018-06-04T09:00:25.992Z,3110.63
2018-06-04T09:01:26.007Z,2761.88
2018-06-04T09:02:26.023Z,1113.75
2018-06-04T09:03:26.034Z,973.13
2018-06-04T09:04:26.049Z,3279.38
2018-06-04T09:05:26.064Z,3279.38
2018-06-04T09:06:26.073Z,3414.38
2018-06-04T09:07:26.090Z,3521.25
2018-06-04T09:08:26.100Z,3436.88
2018-06-04T09:09:26.113Z,3341.25
2018-06-04T09:10:26.126Z,3301.88
2018-06-04T09:11:26.141Z,3330.00
2018-06-04T09:12:26.155Z,3498.75
2018-06-04T09:13:26.168Z,3476.25
2018-06-04T09:14:26.184Z,3448.13
2018-06-04T09:15:26.197Z,3391.88
2018-06-04T09:16:26.212Z,3504.38
2018-06-04T09:17:26.232Z,3476.25
2018-06-04T09:18:26.240Z,3403.13
2018-06-04T09:19:26.258Z,3195.00
2018-06-04T09:20:26.272Z,3268.13
2018-06-04T09:21:26.287Z,3352.50
2018-06-04T09:22:26.304Z,3414.38
2018-06-04T09:23:26.319Z,3532.50
2018-06-04T09:24:26.332Z,3414.38
2018-06-04T09:25:26.350Z,3268.13
2018-06-04T09:26:26.363Z,3397.50
2018-06-04T09:27:26.379Z,3515.63
2018-06-04T09:28:26.405Z,3616.88
2018-06-04T09:29:26.416Z,3532.50
2018-06-04T09:30:26.426Z,3605.63
2018-06-04T09:31:26.442Z,3532.50
2018-06-04T09:32:26.458Z,3622.50
2018-06-04T09:33:26.475Z,3735.00
2018-06-04T09:34:26.489Z,3594.38
2018-06-04T09:35:26.506Z,3408.75
2018-06-04T09:36:26.522Z,3549.38
2018-06-04T09:37:26.538Z,3335.63
2018-06-04T09:38:26.562Z,3436.88
2018-06-04T09:39:26.571Z,3487.50
2018-06-04T09:40:26.588Z,3538.13
2018-06-04T09:41:26.608Z,3577.50
2018-06-04T09:42:26.820Z,3487.50
2018-06-04T09:43:26.635Z,3234.38
2018-06-04T09:44:26.853Z,3436.88
2018-06-04T09:45:26.677Z,3324.38
2018-06-04T09:46:26.684Z,3369.38
2018-06-04T09:47:26.727Z,3571.88
2018-06-04T09:48:26.717Z,3785.63
2018-06-04T09:49:26.745Z,3768.75
2018-06-04T09:50:26.753Z,3493.13
2018-06-04T09:51:26.769Z,3498.75
2018-06-04T09:52:26.985Z,3667.50
2018-06-04T09:53:26.800Z,3684.38
2018-06-04T09:54:26.816Z,3616.88
2018-06-04T09:55:26.833Z,3661.88
2018-06-04T09:56:26.854Z,3296.25
2018-06-04T09:57:26.869Z,3701.25
2018-06-04T09:58:26.884Z,3645.00
2018-06-04T09:59:26.901Z,3448.13
2018-06-04T10:00:26.924Z,3616.88
2018-06-04T10:01:26.939Z,3313.13
2018-06-04T10:02:26.953Z,3459.38
2018-06-04T10:03:26.972Z,3532.50
2018-06-04T10:04:27.190Z,3515.63
2018-06-04T10:05:27.005Z,3318.75
2018-06-04T10:06:27.022Z,3521.25
2018-06-04T10:07:27.039Z,3605.63
2018-06-04T10:08:27.068Z,3645.00
2018-06-04T10:09:27.076Z,3656.25
2018-06-04T10:10:27.091Z,3571.88
2018-06-04T10:11:27.109Z,3701.25
2018-06-04T10:12:27.127Z,3723.75
2018-06-04T10:13:27.146Z,3588.75
2018-06-04T10:14:27.166Z,3622.50
2018-06-04T10:15:27.180Z,3701.25
2018-06-04T10:16:27.197Z,3701.25
2018-06-04T10:17:27.217Z,3228.75
2018-06-04T10:18:27.435Z,3583.13
2018-06-04T10:19:27.255Z,3015.00
2018-06-04T10:20:27.269Z,3521.25
2018-06-04T10:21:27.292Z,3785.63
2018-06-04T10:22:27.353Z,3729.38
2018-06-04T10:23:27.341Z,3763.13
2018-06-04T10:24:27.340Z,3633.75
2018-06-04T10:25:27.364Z,3555.00
2018-06-04T10:26:27.380Z,3453.75
2018-06-04T10:27:27.393Z,3560.63
2018-06-04T10:28:27.411Z,3341.25
2018-06-04T10:29:27.436Z,3268.13
2018-06-04T10:30:27.445Z,3256.88
2018-06-04T10:31:27.463Z,3369.38
2018-06-04T10:32:27.484Z,3346.88
2018-06-04T10:33:27.527Z,3144.38
2018-06-04T10:34:27.520Z,3031.88
2018-06-04T10:35:27.532Z,3110.63
2018-06-04T10:36:27.550Z,3155.63
2018-06-04T10:37:27.569Z,3268.13
2018-06-04T10:38:27.584Z,3442.50
2018-06-04T10:39:27.601Z,3583.13
2018-06-04T10:40:27.682Z,3341.25
2018-06-04T10:41:27.638Z,3296.25
2018-06-04T10:42:27.654Z,3448.13
2018-06-04T10:43:27.672Z,3470.63
2018-06-04T10:44:27.696Z,2086.88
2018-06-04T10:45:27.710Z,1153.13
2018-06-04T10:46:27.784Z,945.00
2018-06-04T10:47:27.746Z,2784.38
2018-06-04T10:48:27.765Z,990.00
2018-06-04T10:49:27.817Z,1186.88
2018-06-04T10:50:27.791Z,3532.50
2018-06-04T10:51:27.806Z,3341.25
2018-06-04T10:52:27.821Z,3279.38
2018-06-04T10:53:27.834Z,3121.88
2018-06-04T10:54:27.848Z,3110.63
2018-06-04T10:55:27.867Z,3228.75
2018-06-04T10:56:27.880Z,3380.63
2018-06-04T10:57:27.949Z,3369.38
2018-06-04T10:58:27.913Z,2919.38
2018-06-04T10:59:27.933Z,2413.13
2018-06-04T11:00:27.943Z,2851.88
2018-06-04T11:01:27.959Z,3099.38
2018-06-04T11:02:27.978Z,3048.75
2018-06-04T11:03:27.991Z,2868.75
2018-06-04T11:04:28.006Z,3133.13
2018-06-04T11:05:28.023Z,3071.25
2018-06-04T11:06:28.037Z,3493.13
2018-06-04T11:07:28.054Z,3706.88
2018-06-04T11:08:28.069Z,3819.38
2018-06-04T11:09:28.095Z,3735.00
2018-06-04T11:10:28.302Z,3605.63
2018-06-04T11:11:28.117Z,3768.75
2018-06-04T11:12:28.134Z,3532.50
2018-06-04T11:13:28.156Z,3560.63
2018-06-04T11:14:28.167Z,3318.75
2018-06-04T11:15:28.184Z,1833.75
2018-06-04T11:16:28.205Z,1856.25
2018-06-04T11:17:28.226Z,2131.88
2018-06-04T11:18:28.246Z,1130.63
2018-06-04T11:19:28.249Z,1350.00
2018-06-04T11:20:28.267Z,3678.75
2018-06-04T11:21:28.284Z,2913.75
2018-06-04T11:22:28.302Z,3723.75
2018-06-04T11:23:28.310Z,3622.50
2018-06-04T11:24:28.328Z,3476.25
2018-06-04T11:25:28.345Z,3487.50
2018-06-04T11:26:28.355Z,3639.38
2018-06-04T11:27:28.370Z,3712.50
2018-06-04T11:28:28.392Z,3538.13
2018-06-04T11:29:28.406Z,3408.75
2018-06-04T11:30:28.482Z,3116.25
2018-06-04T11:31:28.446Z,2683.13
2018-06-04T11:32:28.453Z,3054.38
2018-06-04T11:33:28.473Z,3026.25
2018-06-04T11:34:28.486Z,2947.50
2018-06-04T11:35:28.503Z,2694.38
2018-06-04T11:36:28.523Z,2896.88
2018-06-04T11:37:28.545Z,2514.38
2018-06-04T11:38:28.552Z,2756.25
2018-06-04T11:39:28.568Z,3133.13
2018-06-04T11:40:28.585Z,2368.13
2018-06-04T11:41:28.602Z,2829.38
2018-06-04T11:42:28.617Z,3251.25
2018-06-04T11:43:28.633Z,3358.13
2018-06-04T11:44:28.650Z,3183.75
2018-06-04T11:45:28.817Z,3285.00
2018-06-04T11:46:28.684Z,3465.00
2018-06-04T11:47:28.704Z,3577.50
2018-06-04T11:48:28.715Z,3650.63
2018-06-04T11:49:28.732Z,3515.63
2018-06-04T11:50:28.748Z,3346.88
2018-06-04T11:51:28.775Z,3335.63
2018-06-04T11:52:28.786Z,3099.38
2018-06-04T11:53:28.800Z,3026.25
2018-06-04T11:54:28.817Z,2610.00
2018-06-04T11:55:28.837Z,2705.63
2018-06-04T11:56:28.929Z,2643.75
2018-06-04T11:57:28.871Z,2970.00
2018-06-04T11:58:28.883Z,3172.50
2018-06-04T11:59:28.899Z,2953.13
2018-06-04T12:00:28.918Z,2806.88
2018-06-04T12:01:28.942Z,2767.50
2018-06-04T12:02:28.949Z,2880.00
2018-06-04T12:03:28.969Z,3127.50
2018-06-04T12:04:28.982Z,3301.88
2018-06-04T12:05:28.999Z,3408.75
2018-06-04T12:06:29.218Z,3532.50
2018-06-04T12:07:29.031Z,3605.63
2018-06-04T12:08:29.050Z,3588.75
2018-06-04T12:09:29.065Z,3616.88
2018-06-04T12:10:29.087Z,3571.88
2018-06-04T12:11:29.143Z,3616.88
2018-06-04T12:12:29.116Z,3656.25
2018-06-04T12:13:29.140Z,3256.88
2018-06-04T12:14:29.153Z,2131.88
2018-06-04T12:15:29.173Z,3144.38
2018-06-04T12:16:29.190Z,3251.25
2018-06-04T12:17:29.247Z,3228.75
2018-06-04T12:18:29.220Z,3223.13
2018-06-04T12:19:29.442Z,3189.38
2018-06-04T12:20:29.257Z,3178.13
2018-06-04T12:21:29.274Z,3099.38
2018-06-04T12:22:29.294Z,3076.88
2018-06-04T12:23:29.310Z,2936.25
2018-06-04T12:24:29.324Z,2964.38
2018-06-04T12:25:29.346Z,3301.88
2018-06-04T12:26:29.362Z,3341.25
2018-06-04T12:27:29.374Z,3296.25
2018-06-04T12:28:29.392Z,3262.50
2018-06-04T12:29:29.414Z,3082.50
2018-06-04T12:30:29.431Z,1591.88
2018-06-04T12:31:29.448Z,3043.13
2018-06-04T12:32:29.464Z,2587.50
2018-06-04T12:33:29.479Z,838.13
2018-06-04T12:34:29.498Z,720.00
2018-06-04T12:35:29.513Z,703.13
2018-06-04T12:36:29.525Z,731.25
2018-06-04T12:37:29.539Z,781.88
2018-06-04T12:38:29.553Z,810.00